createdAt,value
2023-05-09T00:01:14.995Z,6.30
2023-05-09T00:03:45.613Z,7.70
2023-05-09T00:06:16.104Z,6.68
2023-05-09T00:08:48.997Z,6.93
2023-05-09T00:11:19.178Z,6.07
2023-05-09T00:13:49.291Z,7.22
2023-05-09T00:16:20.874Z,6.43
2023-05-09T00:18:51.192Z,6.22
2023-05-09T00:21:21.294Z,6.97
2023-05-09T00:23:54.248Z,6.65
2023-05-09T00:26:24.873Z,6.85
2023-05-09T00:28:54.975Z,7.07
2023-05-09T00:31:25.447Z,6.95
2023-05-09T00:33:57.570Z,7.25
2023-05-09T00:36:27.927Z,6.43
2023-05-09T00:39:00.799Z,6.45
2023-05-09T00:41:30.965Z,6.88
2023-05-09T00:44:01.134Z,5.72
2023-05-09T00:46:31.597Z,5.72
2023-05-09T00:49:01.999Z,5.95
2023-05-09T00:51:33.009Z,8.23
2023-05-09T00:54:08.396Z,6.53
2023-05-09T00:56:40.126Z,5.55
2023-05-09T00:59:10.453Z,6.20
2023-05-09T01:01:41.232Z,6.05
2023-05-09T01:04:11.428Z,6.80
2023-05-09T01:06:54.617Z,5.43
2023-05-09T01:09:35.507Z,5.13
2023-05-09T01:12:14.726Z,6.25
2023-05-09T01:14:55.499Z,5.45
2023-05-09T01:17:46.014Z,6.53
2023-05-09T01:20:22.776Z,6.10
2023-05-09T01:23:02.514Z,7.05
2023-05-09T01:25:54.630Z,5.72
2023-05-09T01:28:38.473Z,5.85
2023-05-09T01:31:12.706Z,6.47
2023-05-09T01:33:44.227Z,6.18
2023-05-09T01:36:20.426Z,6.20
2023-05-09T01:38:53.647Z,6.28
2023-05-09T01:41:27.104Z,6.32
2023-05-09T01:43:59.678Z,5.75
2023-05-09T01:46:33.025Z,5.00
2023-05-09T01:49:04.515Z,4.78
2023-05-09T01:51:36.437Z,5.18
2023-05-09T01:54:07.922Z,5.40
2023-05-09T01:56:39.244Z,6.13
2023-05-09T01:59:11.329Z,5.63
2023-05-09T02:01:44.213Z,6.25
2023-05-09T02:04:14.739Z,5.80
2023-05-09T02:06:45.782Z,6.60
2023-05-09T02:09:16.196Z,5.90
2023-05-09T02:11:46.965Z,4.97
2023-05-09T02:14:17.442Z,4.65
2023-05-09T02:16:50.422Z,5.53
2023-05-09T02:19:20.596Z,5.32
2023-05-09T02:21:50.756Z,5.30
2023-05-09T02:24:21.091Z,6.30
2023-05-09T02:26:51.434Z,5.88
2023-05-09T02:29:24.270Z,5.63
2023-05-09T02:31:57.607Z,5.47
2023-05-09T02:34:28.337Z,6.82
2023-05-09T02:36:58.543Z,5.85
2023-05-09T02:39:28.879Z,5.63
2023-05-09T02:41:58.997Z,5.43
2023-05-09T02:44:29.338Z,5.38
2023-05-09T02:47:02.028Z,5.90
2023-05-09T02:49:32.894Z,5.50
2023-05-09T02:54:33.633Z,5.25
2023-05-09T02:57:03.724Z,6.88
2023-05-09T02:59:35.978Z,5.07
2023-05-09T03:02:08.722Z,5.75
2023-05-09T03:04:38.887Z,6.47
2023-05-09T03:07:08.970Z,5.03
2023-05-09T03:09:41.941Z,5.65
2023-05-09T03:12:12.152Z,4.97
2023-05-09T03:14:42.245Z,5.18
2023-05-09T03:17:17.443Z,5.60
2023-05-09T03:19:47.524Z,5.68
2023-05-09T03:22:17.737Z,6.80
2023-05-09T03:24:47.807Z,6.38
2023-05-09T03:27:18.111Z,6.18
2023-05-09T03:29:48.364Z,6.85
2023-05-09T03:32:21.051Z,6.43
2023-05-09T03:34:51.188Z,5.82
2023-05-09T03:37:21.221Z,6.80
2023-05-09T03:39:51.941Z,6.30
2023-05-09T03:42:22.739Z,7.18
2023-05-09T03:44:53.248Z,6.15
2023-05-09T03:47:25.998Z,6.90
2023-05-09T03:49:56.350Z,8.10
2023-05-09T03:52:26.484Z,6.63
2023-05-09T03:54:56.631Z,6.75
2023-05-09T03:57:27.331Z,6.53
2023-05-09T03:59:57.500Z,6.03
2023-05-09T04:02:30.337Z,4.75
2023-05-09T04:05:00.666Z,6.47
2023-05-09T04:07:31.099Z,6.30
2023-05-09T04:10:01.397Z,4.82
2023-05-09T04:12:32.588Z,7.65
2023-05-09T04:15:02.833Z,9.90
2023-05-09T04:17:35.544Z,6.40
2023-05-09T04:20:06.906Z,7.28
2023-05-09T04:22:37.288Z,6.05
2023-05-09T04:25:08.727Z,7.78
2023-05-09T04:27:38.795Z,7.57
2023-05-09T04:30:11.524Z,6.97
2023-05-09T04:32:46.100Z,6.65
2023-05-09T04:35:18.974Z,6.80
2023-05-09T04:37:50.756Z,6.13
2023-05-09T04:40:21.216Z,6.75
2023-05-09T04:42:51.818Z,6.07
2023-05-09T04:45:22.151Z,7.05
2023-05-09T04:47:54.875Z,6.72
2023-05-09T04:50:25.391Z,5.90
2023-05-09T04:52:55.489Z,6.25
2023-05-09T04:55:25.667Z,6.38
2023-05-09T04:57:55.718Z,6.45
2023-05-09T05:00:26.250Z,5.45
2023-05-09T05:02:59.024Z,5.68
2023-05-09T05:05:29.793Z,5.88
2023-05-09T05:08:00.512Z,7.13
2023-05-09T05:10:30.975Z,5.28
2023-05-09T05:13:01.503Z,6.53
2023-05-09T05:15:31.883Z,6.32
2023-05-09T05:18:04.882Z,5.80
2023-05-09T05:20:35.596Z,5.80
2023-05-09T05:23:06.296Z,5.22
2023-05-09T05:25:36.628Z,6.80
2023-05-09T05:28:06.965Z,8.82
2023-05-09T05:30:37.241Z,6.55
2023-05-09T05:33:10.234Z,6.45
2023-05-09T05:35:40.928Z,5.72
2023-05-09T05:38:10.969Z,7.32
2023-05-09T05:40:41.448Z,7.68
2023-05-09T05:43:11.786Z,7.50
2023-05-09T05:45:41.953Z,5.78
2023-05-09T05:48:14.669Z,6.72
2023-05-09T05:50:44.887Z,5.50
2023-05-09T05:53:14.997Z,5.88
2023-05-09T05:55:46.201Z,6.00
2023-05-09T05:58:16.342Z,5.97
2023-05-09T06:00:46.844Z,6.35
2023-05-09T06:03:19.594Z,5.90
2023-05-09T06:05:50.448Z,6.57
2023-05-09T06:08:20.840Z,6.80
2023-05-09T06:10:50.972Z,5.93
2023-05-09T06:13:21.506Z,6.13
2023-05-09T06:15:52.021Z,5.30
2023-05-09T06:18:24.964Z,4.53
2023-05-09T06:20:55.418Z,5.28
2023-05-09T06:23:25.710Z,7.18
2023-05-09T06:25:56.034Z,5.55
2023-05-09T06:28:27.137Z,6.32
2023-05-09T06:30:57.496Z,5.57
2023-05-09T06:33:30.458Z,4.30
2023-05-09T06:36:00.783Z,5.53
2023-05-09T06:38:31.110Z,4.85
2023-05-09T06:41:01.442Z,4.85
2023-05-09T06:43:31.731Z,5.57
2023-05-09T06:46:02.248Z,5.78
2023-05-09T06:48:35.552Z,4.57
2023-05-09T06:51:06.038Z,4.80
2023-05-09T06:53:36.403Z,6.05
2023-05-09T06:56:06.795Z,4.88
2023-05-09T06:58:37.126Z,5.22
2023-05-09T07:01:07.805Z,5.13
2023-05-09T07:03:40.724Z,6.18
2023-05-09T07:06:11.444Z,9.85
2023-05-09T07:08:41.734Z,5.80
2023-05-09T07:11:12.105Z,5.30
2023-05-09T07:13:42.423Z,5.70
2023-05-09T07:16:12.825Z,6.35
2023-05-09T07:18:45.838Z,4.55
2023-05-09T07:21:16.169Z,5.95
2023-05-09T07:23:46.492Z,6.20
2023-05-09T07:26:16.852Z,6.68
2023-05-09T07:28:47.135Z,22.83
2023-05-09T07:31:17.567Z,5.70
2023-05-09T07:33:50.508Z,5.95
2023-05-09T07:36:20.957Z,6.32
2023-05-09T07:38:52.883Z,6.20
2023-05-09T07:41:23.446Z,7.05
2023-05-09T07:43:53.731Z,6.97
2023-05-09T07:46:24.132Z,7.47
2023-05-09T07:48:57.047Z,6.53
2023-05-09T07:51:27.964Z,6.07
2023-05-09T07:53:58.258Z,5.60
2023-05-09T07:56:29.201Z,10.13
2023-05-09T08:01:29.627Z,5.95
2023-05-09T08:04:02.745Z,6.00
2023-05-09T08:06:33.168Z,7.03
2023-05-09T08:09:03.512Z,6.47
2023-05-09T08:11:34.090Z,7.90
2023-05-09T08:14:04.419Z,7.63
2023-05-09T08:16:34.800Z,5.53
2023-05-09T08:19:07.729Z,5.35
2023-05-09T08:21:38.108Z,6.40
2023-05-09T08:24:09.887Z,11.65
2023-05-09T08:26:40.289Z,7.13
2023-05-09T08:29:10.878Z,7.70
2023-05-09T08:31:41.359Z,6.07
2023-05-09T08:34:14.310Z,5.03
2023-05-09T08:36:47.157Z,6.15
2023-05-09T08:39:17.445Z,7.38
2023-05-09T08:41:47.941Z,4.78
2023-05-09T08:44:18.331Z,5.10
2023-05-09T08:46:51.243Z,6.47
2023-05-09T08:49:24.466Z,5.38
2023-05-09T08:51:54.942Z,6.97
2023-05-09T08:54:25.490Z,6.38
2023-05-09T08:56:56.014Z,5.75
2023-05-09T08:59:26.695Z,5.50
2023-05-09T09:01:57.666Z,5.70
2023-05-09T09:04:30.560Z,6.72
2023-05-09T09:07:01.098Z,6.65
2023-05-09T09:09:31.773Z,5.10
2023-05-09T09:12:03.712Z,6.28
2023-05-09T09:14:35.226Z,4.93
2023-05-09T09:17:05.601Z,5.68
2023-05-09T09:19:39.338Z,6.13
2023-05-09T09:22:09.992Z,6.60
2023-05-09T09:24:40.531Z,7.28
2023-05-09T09:27:10.884Z,6.28
2023-05-09T09:29:41.617Z,5.57
2023-05-09T09:32:12.142Z,8.63
2023-05-09T09:34:45.192Z,6.07
2023-05-09T09:37:25.517Z,7.07
2023-05-09T09:39:58.839Z,8.02
2023-05-09T09:42:29.155Z,7.15
2023-05-09T09:45:00.642Z,6.15
2023-05-09T09:47:37.002Z,7.10
2023-05-09T09:50:16.245Z,7.68
2023-05-09T09:52:47.682Z,12.98
2023-05-09T09:55:18.037Z,7.63
2023-05-09T09:57:48.880Z,6.78
2023-05-09T10:00:20.061Z,7.35
2023-05-09T10:02:51.296Z,4.97
2023-05-09T10:05:28.704Z,8.05
2023-05-09T10:10:30.324Z,8.88
2023-05-09T10:13:01.747Z,7.32
2023-05-09T10:15:41.384Z,6.45
2023-05-09T10:18:21.819Z,8.13
2023-05-09T10:20:55.110Z,6.40
2023-05-09T10:23:26.685Z,6.63
2023-05-09T10:26:00.302Z,6.40
2023-05-09T10:28:33.478Z,6.72
2023-05-09T10:31:06.435Z,6.03
2023-05-09T10:33:41.620Z,6.75
2023-05-09T10:36:15.451Z,7.13
2023-05-09T10:38:45.965Z,7.00
2023-05-09T10:41:19.333Z,6.15
2023-05-09T10:43:49.587Z,7.25
2023-05-09T10:46:20.386Z,10.50
2023-05-09T10:51:23.554Z,6.70
2023-05-09T10:53:56.161Z,7.40
2023-05-09T10:56:27.652Z,8.82
2023-05-09T10:58:58.406Z,6.32
2023-05-09T11:01:35.045Z,8.13
2023-05-09T11:04:06.653Z,6.05
2023-05-09T11:06:57.656Z,6.72
2023-05-09T11:09:29.497Z,5.88
2023-05-09T11:12:00.858Z,6.97
2023-05-09T11:14:34.974Z,5.60
2023-05-09T11:17:06.682Z,6.15
2023-05-09T11:19:41.020Z,4.90
2023-05-09T11:22:20.562Z,7.78
2023-05-09T11:24:51.179Z,6.13
2023-05-09T11:27:23.815Z,5.75
2023-05-09T11:29:54.623Z,5.10
2023-05-09T11:32:25.728Z,5.38
2023-05-09T11:34:56.124Z,4.60
2023-05-09T11:37:34.785Z,5.05
2023-05-09T11:40:06.184Z,5.07
2023-05-09T11:42:36.510Z,7.88
2023-05-09T11:45:07.691Z,4.47
2023-05-09T11:47:39.774Z,5.13
2023-05-09T11:50:11.169Z,6.43
2023-05-09T11:52:44.330Z,5.05
2023-05-09T11:55:19.128Z,5.57
2023-05-09T11:57:51.018Z,5.30
2023-05-09T12:00:23.403Z,7.82
2023-05-09T12:02:56.952Z,5.78
2023-05-09T12:05:27.273Z,4.75
2023-05-09T12:08:06.359Z,13.70
2023-05-09T12:10:40.451Z,5.40
2023-05-09T12:13:10.799Z,5.47
2023-05-09T12:15:43.841Z,5.22
2023-05-09T12:18:14.291Z,7.93
2023-05-09T12:20:46.243Z,3.72
2023-05-09T12:23:19.328Z,5.18
2023-05-09T12:25:53.297Z,4.75
2023-05-09T12:28:23.927Z,6.35
2023-05-09T12:30:54.715Z,4.95
2023-05-09T12:33:25.556Z,5.15
2023-05-09T12:36:06.158Z,4.43
2023-05-09T12:38:38.984Z,4.90
2023-05-09T12:41:22.318Z,9.98
2023-05-09T12:44:00.367Z,3.50
2023-05-09T12:46:30.779Z,3.15
2023-05-09T12:49:01.180Z,3.45
2023-05-09T12:51:31.495Z,6.78
2023-05-09T12:54:06.608Z,4.13
2023-05-09T12:56:38.498Z,3.60
2023-05-09T12:59:15.084Z,4.57
2023-05-09T13:01:45.437Z,4.15
2023-05-09T13:04:15.763Z,4.35
2023-05-09T13:06:52.125Z,3.45
2023-05-09T13:09:25.407Z,4.15
2023-05-09T13:11:56.471Z,3.75
2023-05-09T13:14:27.079Z,3.72
2023-05-09T13:16:57.763Z,3.80
2023-05-09T13:19:28.108Z,4.18
2023-05-09T13:21:58.666Z,4.82
2023-05-09T13:24:31.792Z,4.32
2023-05-09T13:27:02.155Z,3.92
2023-05-09T13:29:32.482Z,4.40
2023-05-09T13:32:03.684Z,3.42
2023-05-09T13:34:34.622Z,4.65
2023-05-09T13:37:04.784Z,3.22
2023-05-09T13:39:37.595Z,5.72
2023-05-09T13:42:07.721Z,3.33
2023-05-09T13:44:37.840Z,4.13
2023-05-09T13:47:08.367Z,4.80
2023-05-09T13:49:38.594Z,4.40
2023-05-09T13:52:09.635Z,3.20
2023-05-09T13:54:42.525Z,3.83
2023-05-09T13:57:13.031Z,3.75
2023-05-09T13:59:43.945Z,3.35
2023-05-09T14:04:44.580Z,5.00
2023-05-09T14:07:16.930Z,6.28
2023-05-09T14:09:54.005Z,6.63
2023-05-09T14:12:29.028Z,6.05
2023-05-09T14:14:59.215Z,5.05
2023-05-09T14:17:29.477Z,8.27
2023-05-09T14:19:59.951Z,3.42
2023-05-09T14:22:30.102Z,5.40
2023-05-09T14:25:02.827Z,3.97
2023-05-09T14:27:34.258Z,5.53
2023-05-09T14:30:04.650Z,3.88
2023-05-09T14:32:34.791Z,4.55
2023-05-09T14:35:05.003Z,3.78
2023-05-09T14:37:35.218Z,4.35
2023-05-09T14:40:09.856Z,4.32
2023-05-09T14:42:40.007Z,4.53
2023-05-09T14:45:15.550Z,3.85
2023-05-09T14:47:49.076Z,4.57
2023-05-09T14:50:19.449Z,5.35
2023-05-09T14:52:49.591Z,5.38
2023-05-09T14:55:23.315Z,4.70
2023-05-09T14:57:53.624Z,5.25
2023-05-09T15:00:25.918Z,4.18
2023-05-09T15:02:56.308Z,4.40
2023-05-09T15:05:26.544Z,4.30
2023-05-09T15:07:56.714Z,3.92
2023-05-09T15:10:29.624Z,4.35
2023-05-09T15:12:59.824Z,4.43
2023-05-09T15:15:30.085Z,4.97
2023-05-09T15:18:02.460Z,5.43
2023-05-09T15:20:32.576Z,4.55
2023-05-09T15:23:02.794Z,4.97
2023-05-09T15:25:35.964Z,3.85
2023-05-09T15:28:07.220Z,5.70
2023-05-09T15:30:39.029Z,3.88
2023-05-09T15:33:09.340Z,6.15
2023-05-09T15:35:40.105Z,5.40
2023-05-09T15:38:12.382Z,7.90
2023-05-09T15:40:45.476Z,7.65
2023-05-09T15:43:15.601Z,7.88
2023-05-09T15:45:46.859Z,6.32
2023-05-09T15:48:17.526Z,7.05
2023-05-09T15:50:48.727Z,7.32
2023-05-09T15:53:18.838Z,8.07
2023-05-09T15:55:52.099Z,10.43
2023-05-09T15:58:22.616Z,9.52
2023-05-09T16:00:52.925Z,8.77
2023-05-09T16:03:25.231Z,10.27
2023-05-09T16:05:55.948Z,10.55
2023-05-09T16:08:26.309Z,9.68
2023-05-09T16:11:02.177Z,8.75
2023-05-09T16:13:34.277Z,8.13
2023-05-09T16:16:06.380Z,6.93
2023-05-09T16:18:36.742Z,6.18
2023-05-09T16:21:07.178Z,7.60
2023-05-09T16:23:39.657Z,8.10
2023-05-09T16:26:12.377Z,6.78
2023-05-09T16:28:42.752Z,6.70
2023-05-09T16:31:12.853Z,6.80
2023-05-09T16:33:43.007Z,6.05
2023-05-09T16:36:13.280Z,6.45
2023-05-09T16:38:43.520Z,5.72
2023-05-09T16:41:16.375Z,6.60
2023-05-09T16:43:46.507Z,5.85
2023-05-09T16:46:17.091Z,6.22
2023-05-09T16:48:47.329Z,6.80
2023-05-09T16:51:18.321Z,7.10
2023-05-09T16:53:48.480Z,6.40
2023-05-09T16:56:21.825Z,6.85
2023-05-09T16:58:52.033Z,6.97
2023-05-09T17:01:22.393Z,7.70
2023-05-09T17:03:52.822Z,7.32
2023-05-09T17:06:23.862Z,8.00
2023-05-09T17:08:54.301Z,6.78
2023-05-09T17:11:26.969Z,8.30
2023-05-09T17:13:57.117Z,7.32
2023-05-09T17:16:27.505Z,6.57
2023-05-09T17:18:57.656Z,5.95
2023-05-09T17:21:28.318Z,5.82
2023-05-09T17:23:58.704Z,5.93
2023-05-09T17:26:32.189Z,5.97
2023-05-09T17:29:03.839Z,6.75
2023-05-09T17:31:34.315Z,5.38
2023-05-09T17:34:05.776Z,6.35
2023-05-09T17:36:36.027Z,6.75
2023-05-09T17:39:07.320Z,6.38
2023-05-09T17:41:40.037Z,5.63
2023-05-09T17:44:10.221Z,6.47
2023-05-09T17:46:42.772Z,6.18
2023-05-09T17:49:14.304Z,5.55
2023-05-09T17:51:44.490Z,10.88
2023-05-09T17:54:14.801Z,6.13
2023-05-09T17:56:51.155Z,6.40
2023-05-09T17:59:21.324Z,6.20
2023-05-09T18:01:51.436Z,6.38
2023-05-09T18:04:22.217Z,6.22
2023-05-09T18:06:52.843Z,6.30
2023-05-09T18:09:23.694Z,6.38
2023-05-09T18:14:26.331Z,6.63
2023-05-09T18:16:56.403Z,6.78
2023-05-09T18:19:26.628Z,5.90
2023-05-09T18:21:56.837Z,6.63
2023-05-09T18:24:27.248Z,6.75
2023-05-09T18:26:59.983Z,8.05
2023-05-09T18:29:30.141Z,6.95
2023-05-09T18:32:00.458Z,6.57
2023-05-09T18:34:30.962Z,6.35
2023-05-09T18:37:01.142Z,6.82
2023-05-09T18:39:31.270Z,6.57
2023-05-09T18:42:04.027Z,6.22
2023-05-09T18:44:34.174Z,6.05
2023-05-09T18:47:04.429Z,7.78
2023-05-09T18:49:34.720Z,6.93
2023-05-09T18:52:05.173Z,7.50
2023-05-09T18:54:35.928Z,7.07
2023-05-09T18:57:08.645Z,6.90
2023-05-09T18:59:38.820Z,6.22
2023-05-09T19:02:09.298Z,7.30
2023-05-09T19:04:39.496Z,6.20
2023-05-09T19:07:10.259Z,8.00
2023-05-09T19:09:40.528Z,5.93
2023-05-09T19:12:13.248Z,6.35
2023-05-09T19:14:43.646Z,6.18
2023-05-09T19:17:13.848Z,6.63
2023-05-09T19:19:44.116Z,6.13
2023-05-09T19:22:14.304Z,7.35
2023-05-09T19:24:45.870Z,6.00
2023-05-09T19:27:18.618Z,5.68
2023-05-09T19:29:49.921Z,6.65
2023-05-09T19:32:20.898Z,5.95
2023-05-09T19:34:51.934Z,5.85
2023-05-09T19:37:22.051Z,6.90
2023-05-09T19:39:52.193Z,6.55
2023-05-09T19:42:24.947Z,5.90
2023-05-09T19:44:55.320Z,6.82
2023-05-09T19:47:25.447Z,6.80
2023-05-09T19:49:56.384Z,6.28
2023-05-09T19:54:56.665Z,6.05
2023-05-09T19:57:29.396Z,5.97
2023-05-09T20:00:00.754Z,7.45
2023-05-09T20:02:30.980Z,6.70
2023-05-09T20:05:01.381Z,7.60
2023-05-09T20:07:31.735Z,6.50
2023-05-09T20:10:01.946Z,6.75
2023-05-09T20:12:34.712Z,7.35
2023-05-09T20:15:05.778Z,6.18
2023-05-09T20:17:35.931Z,6.93
2023-05-09T20:20:06.808Z,6.45
2023-05-09T20:22:37.408Z,6.50
2023-05-09T20:25:08.475Z,6.70
2023-05-09T20:27:41.402Z,6.15
2023-05-09T20:30:12.876Z,6.68
2023-05-09T20:32:43.397Z,6.25
2023-05-09T20:35:13.879Z,6.47
2023-05-09T20:37:44.549Z,5.88
2023-05-09T20:40:15.720Z,5.38
2023-05-09T20:42:48.900Z,7.28
2023-05-09T20:45:19.365Z,6.38
2023-05-09T20:47:49.901Z,6.15
2023-05-09T20:50:20.697Z,5.95
2023-05-09T20:52:51.030Z,6.22
2023-05-09T20:55:21.508Z,7.43
2023-05-09T20:57:54.428Z,7.15
2023-05-09T21:00:24.786Z,8.55
2023-05-09T21:02:57.521Z,8.27
2023-05-09T21:05:28.771Z,9.13
2023-05-09T21:07:59.089Z,8.95
2023-05-09T21:10:29.541Z,9.07
2023-05-09T21:13:02.674Z,9.88
2023-05-09T21:15:33.220Z,9.07
2023-05-09T21:18:03.570Z,9.20
2023-05-09T21:20:33.977Z,8.95
2023-05-09T21:23:04.410Z,8.75
2023-05-09T21:25:35.032Z,9.75
2023-05-09T21:28:08.000Z,8.27
2023-05-09T21:30:38.415Z,9.93
2023-05-09T21:33:08.845Z,8.95
2023-05-09T21:35:39.236Z,9.50
2023-05-09T21:38:09.560Z,9.45
2023-05-09T21:40:40.907Z,9.35
2023-05-09T21:43:13.918Z,9.27
2023-05-09T21:45:44.366Z,10.50
2023-05-09T21:48:14.748Z,10.10
2023-05-09T21:50:47.630Z,9.75
2023-05-09T21:53:17.941Z,10.57
2023-05-09T21:55:48.277Z,11.65
2023-05-09T21:58:21.168Z,11.20
2023-05-09T22:00:51.522Z,12.98
2023-05-09T22:03:21.897Z,16.38
2023-05-09T22:05:52.300Z,21.23
2023-05-09T22:08:22.592Z,24.75
2023-05-09T22:10:53.020Z,24.27
2023-05-09T22:13:27.049Z,29.23
2023-05-09T22:15:57.429Z,22.00
2023-05-09T22:18:27.531Z,21.00
2023-05-09T22:20:57.735Z,20.52
2023-05-09T22:23:27.934Z,19.40
2023-05-09T22:25:58.046Z,16.88
2023-05-09T22:28:30.973Z,16.05
2023-05-09T22:31:01.399Z,12.75
2023-05-09T22:33:31.714Z,11.48
2023-05-09T22:36:01.855Z,12.27
2023-05-09T22:38:31.982Z,14.18
2023-05-09T22:41:02.151Z,12.40
2023-05-09T22:43:39.277Z,13.07
2023-05-09T22:46:10.548Z,12.32
2023-05-09T22:48:40.717Z,13.32
2023-05-09T22:51:11.108Z,11.00
2023-05-09T22:53:41.178Z,11.20
2023-05-09T22:56:12.981Z,9.57
2023-05-09T22:58:45.693Z,11.88
2023-05-09T23:01:15.807Z,11.30
2023-05-09T23:03:46.202Z,10.32
2023-05-09T23:06:16.518Z,9.85
2023-05-09T23:08:46.704Z,10.43
2023-05-09T23:11:16.909Z,11.15
2023-05-09T23:13:49.652Z,11.13
2023-05-09T23:16:19.926Z,11.77
2023-05-09T23:18:50.153Z,13.45
2023-05-09T23:21:20.222Z,12.05
2023-05-09T23:23:50.328Z,12.55
2023-05-09T23:26:21.022Z,13.32
2023-05-09T23:28:55.364Z,10.70
2023-05-09T23:31:25.538Z,12.20
2023-05-09T23:33:55.620Z,11.05
2023-05-09T23:36:25.716Z,12.93
2023-05-09T23:38:55.879Z,10.57
2023-05-09T23:41:26.064Z,11.77
2023-05-09T23:44:00.010Z,10.02
2023-05-09T23:46:30.172Z,9.95
2023-05-09T23:49:00.451Z,11.73
2023-05-09T23:51:30.608Z,13.00
2023-05-09T23:54:00.793Z,16.38
2023-05-09T23:56:31.460Z,23.52
2023-05-09T23:59:04.196Z,26.45
